sensor_id;sensor_type;location;lat;lon;timestamp;P1;durP1;ratioP1;P2;durP2;ratioP2
9178;SDS011;71287;48.414;11.478;2024-01-27T00:00:04;1.93;;;1.20;;
9178;SDS011;71287;48.414;11.478;2024-01-27T00:02:32;2.10;;;0.63;;
9178;SDS011;71287;48.414;11.478;2024-01-27T00:04:59;2.07;;;0.83;;
9178;SDS011;71287;48.414;11.478;2024-01-27T00:07:27;2.20;;;0.80;;
9178;SDS011;71287;48.414;11.478;2024-01-27T00:09:54;1.90;;;0.83;;
9178;SDS011;71287;48.414;11.478;2024-01-27T00:12:21;3.40;;;1.00;;
9178;SDS011;71287;48.414;11.478;2024-01-27T00:14:47;1.90;;;0.80;;
9178;SDS011;71287;48.414;11.478;2024-01-27T00:17:15;6.03;;;0.93;;
9178;SDS011;71287;48.414;11.478;2024-01-27T00:19:42;2.17;;;0.80;;
9178;SDS011;71287;48.414;11.478;2024-01-27T00:22:08;2.37;;;0.90;;
9178;SDS011;71287;48.414;11.478;2024-01-27T00:24:36;2.80;;;1.00;;
9178;SDS011;71287;48.414;11.478;2024-01-27T00:27:03;3.93;;;0.83;;
9178;SDS011;71287;48.414;11.478;2024-01-27T00:29:30;1.30;;;0.80;;
9178;SDS011;71287;48.414;11.478;2024-01-27T00:31:57;3.87;;;0.90;;
9178;SDS011;71287;48.414;11.478;2024-01-27T00:34:23;2.13;;;0.80;;
9178;SDS011;71287;48.414;11.478;2024-01-27T00:36:50;3.17;;;0.90;;
9178;SDS011;71287;48.414;11.478;2024-01-27T00:39:17;4.77;;;0.90;;
9178;SDS011;71287;48.414;11.478;2024-01-27T00:41:46;1.70;;;0.83;;
9178;SDS011;71287;48.414;11.478;2024-01-27T00:44:12;4.33;;;1.00;;
9178;SDS011;71287;48.414;11.478;2024-01-27T00:46:39;3.03;;;0.90;;
9178;SDS011;71287;48.414;11.478;2024-01-27T00:49:06;2.03;;;0.80;;
9178;SDS011;71287;48.414;11.478;2024-01-27T00:51:33;2.83;;;0.60;;
9178;SDS011;71287;48.414;11.478;2024-01-27T00:53:59;2.47;;;0.60;;
9178;SDS011;71287;48.414;11.478;2024-01-27T00:56:26;1.13;;;0.73;;
9178;SDS011;71287;48.414;11.478;2024-01-27T00:58:54;1.60;;;0.60;;
9178;SDS011;71287;48.414;11.478;2024-01-27T01:01:21;2.77;;;0.70;;
9178;SDS011;71287;48.414;11.478;2024-01-27T01:03:48;1.00;;;0.60;;
9178;SDS011;71287;48.414;11.478;2024-01-27T01:06:14;2.63;;;0.73;;
9178;SDS011;71287;48.414;11.478;2024-01-27T01:08:41;2.13;;;0.57;;
9178;SDS011;71287;48.414;11.478;2024-01-27T01:11:08;1.63;;;0.70;;
9178;SDS011;71287;48.414;11.478;2024-01-27T01:13:35;1.80;;;0.70;;
9178;SDS011;71287;48.414;11.478;2024-01-27T01:16:03;2.40;;;1.00;;
9178;SDS011;71287;48.414;11.478;2024-01-27T01:18:30;1.27;;;0.60;;
9178;SDS011;71287;48.414;11.478;2024-01-27T01:20:57;4.67;;;0.70;;
9178;SDS011;71287;48.414;11.478;2024-01-27T01:23:23;1.30;;;0.80;;
9178;SDS011;71287;48.414;11.478;2024-01-27T01:25:50;2.27;;;0.77;;
9178;SDS011;71287;48.414;11.478;2024-01-27T01:28:17;2.00;;;0.70;;
9178;SDS011;71287;48.414;11.478;2024-01-27T01:30:44;2.10;;;0.90;;
9178;SDS011;71287;48.414;11.478;2024-01-27T01:33:12;2.57;;;0.80;;
9178;SDS011;71287;48.414;11.478;2024-01-27T01:35:38;2.47;;;1.20;;
9178;SDS011;71287;48.414;11.478;2024-01-27T01:38:05;2.00;;;0.80;;
9178;SDS011;71287;48.414;11.478;2024-01-27T01:40:32;2.47;;;0.90;;
9178;SDS011;71287;48.414;11.478;2024-01-27T01:42:59;2.20;;;0.90;;
9178;SDS011;71287;48.414;11.478;2024-01-27T01:45:26;3.73;;;1.00;;
9178;SDS011;71287;48.414;11.478;2024-01-27T01:47:52;2.27;;;1.00;;
9178;SDS011;71287;48.414;11.478;2024-01-27T01:50:20;2.17;;;0.90;;
9178;SDS011;71287;48.414;11.478;2024-01-27T01:52:48;3.03;;;0.93;;
9178;SDS011;71287;48.414;11.478;2024-01-27T01:55:15;5.27;;;1.20;;
9178;SDS011;71287;48.414;11.478;2024-01-27T01:57:42;1.07;;;0.90;;
9178;SDS011;71287;48.414;11.478;2024-01-27T02:00:10;3.87;;;1.07;;
9178;SDS011;71287;48.414;11.478;2024-01-27T02:02:38;6.07;;;1.23;;
9178;SDS011;71287;48.414;11.478;2024-01-27T02:05:05;2.00;;;1.23;;
9178;SDS011;71287;48.414;11.478;2024-01-27T02:07:36;3.43;;;1.20;;
9178;SDS011;71287;48.414;11.478;2024-01-27T02:10:03;4.73;;;1.00;;
9178;SDS011;71287;48.414;11.478;2024-01-27T02:12:31;1.23;;;0.60;;
9178;SDS011;71287;48.414;11.478;2024-01-27T02:14:58;4.63;;;1.40;;
9178;SDS011;71287;48.414;11.478;2024-01-27T02:17:25;3.87;;;1.53;;
9178;SDS011;71287;48.414;11.478;2024-01-27T02:19:51;4.00;;;0.80;;
9178;SDS011;71287;48.414;11.478;2024-01-27T02:22:18;3.40;;;1.00;;
9178;SDS011;71287;48.414;11.478;2024-01-27T02:24:46;3.70;;;0.70;;
9178;SDS011;71287;48.414;11.478;2024-01-27T02:27:13;3.77;;;1.17;;
9178;SDS011;71287;48.414;11.478;2024-01-27T02:29:40;1.20;;;0.70;;
9178;SDS011;71287;48.414;11.478;2024-01-27T02:32:06;2.67;;;1.00;;
9178;SDS011;71287;48.414;11.478;2024-01-27T02:34:33;2.47;;;1.30;;
9178;SDS011;71287;48.414;11.478;2024-01-27T02:37:00;3.50;;;1.20;;
9178;SDS011;71287;48.414;11.478;2024-01-27T02:39:26;3.83;;;1.10;;
9178;SDS011;71287;48.414;11.478;2024-01-27T02:41:55;4.50;;;1.03;;
9178;SDS011;71287;48.414;11.478;2024-01-27T02:44:21;3.60;;;0.97;;
9178;SDS011;71287;48.414;11.478;2024-01-27T02:46:48;2.73;;;1.30;;
9178;SDS011;71287;48.414;11.478;2024-01-27T02:49:15;4.03;;;1.10;;
9178;SDS011;71287;48.414;11.478;2024-01-27T02:51:41;4.80;;;1.30;;
9178;SDS011;71287;48.414;11.478;2024-01-27T02:54:09;3.13;;;0.97;;
9178;SDS011;71287;48.414;11.478;2024-01-27T02:56:36;1.83;;;0.90;;
9178;SDS011;71287;48.414;11.478;2024-01-27T02:59:04;3.23;;;0.70;;
9178;SDS011;71287;48.414;11.478;2024-01-27T03:01:30;1.60;;;0.80;;
9178;SDS011;71287;48.414;11.478;2024-01-27T03:03:57;2.00;;;0.80;;
9178;SDS011;71287;48.414;11.478;2024-01-27T03:06:24;1.27;;;0.60;;
9178;SDS011;71287;48.414;11.478;2024-01-27T03:08:51;5.60;;;0.90;;
9178;SDS011;71287;48.414;11.478;2024-01-27T03:11:17;2.13;;;0.80;;
9178;SDS011;71287;48.414;11.478;2024-01-27T03:13:44;4.00;;;0.97;;
9178;SDS011;71287;48.414;11.478;2024-01-27T03:16:12;3.43;;;0.73;;
9178;SDS011;71287;48.414;11.478;2024-01-27T03:18:39;3.07;;;0.80;;
9178;SDS011;71287;48.414;11.478;2024-01-27T03:21:06;4.90;;;1.10;;
9178;SDS011;71287;48.414;11.478;2024-01-27T03:23:33;1.20;;;0.60;;
9178;SDS011;71287;48.414;11.478;2024-01-27T03:26:01;3.63;;;0.73;;
9178;SDS011;71287;48.414;11.478;2024-01-27T03:28:28;4.50;;;1.03;;
9178;SDS011;71287;48.414;11.478;2024-01-27T03:30:55;2.23;;;0.80;;
9178;SDS011;71287;48.414;11.478;2024-01-27T03:33:23;1.90;;;0.90;;
9178;SDS011;71287;48.414;11.478;2024-01-27T03:35:50;1.93;;;1.07;;
9178;SDS011;71287;48.414;11.478;2024-01-27T03:38:16;0.60;;;0.53;;
9178;SDS011;71287;48.414;11.478;2024-01-27T03:40:43;2.93;;;0.70;;
9178;SDS011;71287;48.414;11.478;2024-01-27T03:43:10;2.47;;;0.70;;
9178;SDS011;71287;48.414;11.478;2024-01-27T03:45:37;2.83;;;0.80;;
9178;SDS011;71287;48.414;11.478;2024-01-27T03:48:04;5.47;;;0.97;;
9178;SDS011;71287;48.414;11.478;2024-01-27T03:50:33;1.27;;;0.80;;
9178;SDS011;71287;48.414;11.478;2024-01-27T03:52:59;2.93;;;0.93;;
9178;SDS011;71287;48.414;11.478;2024-01-27T03:55:26;2.40;;;0.80;;
9178;SDS011;71287;48.414;11.478;2024-01-27T03:57:53;1.70;;;1.00;;
9178;SDS011;71287;48.414;11.478;2024-01-27T04:00:20;2.33;;;0.67;;
9178;SDS011;71287;48.414;11.478;2024-01-27T04:02:47;1.97;;;0.73;;
9178;SDS011;71287;48.414;11.478;2024-01-27T04:05:14;5.43;;;0.93;;
9178;SDS011;71287;48.414;11.478;2024-01-27T04:07:42;3.40;;;0.80;;
9178;SDS011;71287;48.414;11.478;2024-01-27T04:10:09;2.63;;;0.90;;
9178;SDS011;71287;48.414;11.478;2024-01-27T04:12:36;4.87;;;0.87;;
9178;SDS011;71287;48.414;11.478;2024-01-27T04:15:03;3.07;;;1.10;;
9178;SDS011;71287;48.414;11.478;2024-01-27T04:17:30;2.73;;;0.80;;
9178;SDS011;71287;48.414;11.478;2024-01-27T04:19:56;2.33;;;0.63;;
9178;SDS011;71287;48.414;11.478;2024-01-27T04:22:23;1.77;;;0.83;;
9178;SDS011;71287;48.414;11.478;2024-01-27T04:24:51;0.87;;;0.57;;
9178;SDS011;71287;48.414;11.478;2024-01-27T04:27:18;2.30;;;0.80;;
9178;SDS011;71287;48.414;11.478;2024-01-27T04:29:45;1.73;;;0.83;;
9178;SDS011;71287;48.414;11.478;2024-01-27T04:32:12;2.33;;;1.20;;
9178;SDS011;71287;48.414;11.478;2024-01-27T04:34:39;2.80;;;1.07;;
9178;SDS011;71287;48.414;11.478;2024-01-27T04:37:05;1.63;;;0.77;;
9178;SDS011;71287;48.414;11.478;2024-01-27T04:39:32;2.13;;;1.07;;
9178;SDS011;71287;48.414;11.478;2024-01-27T04:42:01;2.70;;;0.90;;
9178;SDS011;71287;48.414;11.478;2024-01-27T04:44:28;3.27;;;1.10;;
9178;SDS011;71287;48.414;11.478;2024-01-27T04:46:54;3.47;;;0.87;;
9178;SDS011;71287;48.414;11.478;2024-01-27T04:49:21;3.23;;;1.23;;
9178;SDS011;71287;48.414;11.478;2024-01-27T04:51:48;2.90;;;1.07;;
9178;SDS011;71287;48.414;11.478;2024-01-27T04:54:15;2.67;;;1.40;;
9178;SDS011;71287;48.414;11.478;2024-01-27T04:56:42;3.37;;;0.83;;
9178;SDS011;71287;48.414;11.478;2024-01-27T04:59:10;3.00;;;1.07;;
9178;SDS011;71287;48.414;11.478;2024-01-27T05:01:36;3.20;;;0.90;;
9178;SDS011;71287;48.414;11.478;2024-01-27T05:04:03;1.17;;;0.90;;
9178;SDS011;71287;48.414;11.478;2024-01-27T05:06:30;4.60;;;1.23;;
9178;SDS011;71287;48.414;11.478;2024-01-27T05:08:57;3.57;;;1.00;;
9178;SDS011;71287;48.414;11.478;2024-01-27T05:11:28;3.03;;;1.20;;
9178;SDS011;71287;48.414;11.478;2024-01-27T05:13:57;3.17;;;1.10;;
9178;SDS011;71287;48.414;11.478;2024-01-27T05:16:25;3.60;;;1.43;;
9178;SDS011;71287;48.414;11.478;2024-01-27T05:18:51;1.27;;;1.07;;
9178;SDS011;71287;48.414;11.478;2024-01-27T05:21:18;4.27;;;1.20;;
9178;SDS011;71287;48.414;11.478;2024-01-27T05:23:45;3.60;;;1.20;;
9178;SDS011;71287;48.414;11.478;2024-01-27T05:26:12;5.10;;;1.30;;
9178;SDS011;71287;48.414;11.478;2024-01-27T05:28:38;3.13;;;1.20;;
9178;SDS011;71287;48.414;11.478;2024-01-27T05:31:06;2.17;;;1.10;;
9178;SDS011;71287;48.414;11.478;2024-01-27T05:33:35;3.47;;;1.20;;
9178;SDS011;71287;48.414;11.478;2024-01-27T05:36:02;4.30;;;1.60;;
9178;SDS011;71287;48.414;11.478;2024-01-27T05:38:29;4.37;;;1.10;;
9178;SDS011;71287;48.414;11.478;2024-01-27T05:40:57;4.13;;;1.50;;
9178;SDS011;71287;48.414;11.478;2024-01-27T05:43:24;3.57;;;1.17;;
9178;SDS011;71287;48.414;11.478;2024-01-27T05:45:51;4.07;;;1.30;;
9178;SDS011;71287;48.414;11.478;2024-01-27T05:48:18;4.17;;;1.50;;
9178;SDS011;71287;48.414;11.478;2024-01-27T05:50:55;4.57;;;1.53;;
9178;SDS011;71287;48.414;11.478;2024-01-27T05:53:23;2.77;;;1.87;;
9178;SDS011;71287;48.414;11.478;2024-01-27T05:55:51;4.27;;;2.07;;
9178;SDS011;71287;48.414;11.478;2024-01-27T05:58:58;5.27;;;2.87;;
9178;SDS011;71287;48.414;11.478;2024-01-27T06:01:25;5.83;;;2.80;;
9178;SDS011;71287;48.414;11.478;2024-01-27T06:03:51;5.33;;;2.40;;
9178;SDS011;71287;48.414;11.478;2024-01-27T06:06:20;4.20;;;2.17;;
9178;SDS011;71287;48.414;11.478;2024-01-27T06:08:46;7.57;;;2.07;;
9178;SDS011;71287;48.414;11.478;2024-01-27T06:11:13;4.67;;;3.27;;
9178;SDS011;71287;48.414;11.478;2024-01-27T06:13:40;5.07;;;2.83;;
9178;SDS011;71287;48.414;11.478;2024-01-27T06:16:08;3.87;;;2.13;;
9178;SDS011;71287;48.414;11.478;2024-01-27T06:18:35;5.00;;;2.07;;
9178;SDS011;71287;48.414;11.478;2024-01-27T06:21:03;3.30;;;1.90;;
9178;SDS011;71287;48.414;11.478;2024-01-27T06:23:32;4.27;;;2.50;;
9178;SDS011;71287;48.414;11.478;2024-01-27T06:26:03;4.17;;;3.20;;
9178;SDS011;71287;48.414;11.478;2024-01-27T06:28:30;8.67;;;3.43;;
9178;SDS011;71287;48.414;11.478;2024-01-27T06:30:57;5.57;;;4.97;;
9178;SDS011;71287;48.414;11.478;2024-01-27T06:33:24;9.80;;;7.23;;
9178;SDS011;71287;48.414;11.478;2024-01-27T06:35:50;13.93;;;8.90;;
9178;SDS011;71287;48.414;11.478;2024-01-27T06:38:17;36.13;;;20.73;;
9178;SDS011;71287;48.414;11.478;2024-01-27T06:40:45;37.23;;;23.80;;
9178;SDS011;71287;48.414;11.478;2024-01-27T06:43:13;21.33;;;13.93;;
9178;SDS011;71287;48.414;11.478;2024-01-27T06:45:39;13.23;;;7.03;;
9178;SDS011;71287;48.414;11.478;2024-01-27T06:48:07;9.00;;;4.00;;
9178;SDS011;71287;48.414;11.478;2024-01-27T06:50:33;5.17;;;2.70;;
9178;SDS011;71287;48.414;11.478;2024-01-27T06:53:00;4.83;;;1.90;;
9178;SDS011;71287;48.414;11.478;2024-01-27T06:55:27;3.97;;;3.00;;
9178;SDS011;71287;48.414;11.478;2024-01-27T06:57:55;5.23;;;3.60;;
9178;SDS011;71287;48.414;11.478;2024-01-27T07:00:22;4.87;;;3.37;;
9178;SDS011;71287;48.414;11.478;2024-01-27T07:02:49;5.83;;;3.83;;
9178;SDS011;71287;48.414;11.478;2024-01-27T07:05:16;6.27;;;3.03;;
9178;SDS011;71287;48.414;11.478;2024-01-27T07:07:42;4.00;;;2.50;;
9178;SDS011;71287;48.414;11.478;2024-01-27T07:10:09;5.07;;;3.00;;
9178;SDS011;71287;48.414;11.478;2024-01-27T07:12:36;2.70;;;2.50;;
9178;SDS011;71287;48.414;11.478;2024-01-27T07:15:04;4.27;;;2.53;;
9178;SDS011;71287;48.414;11.478;2024-01-27T07:17:32;4.07;;;2.30;;
9178;SDS011;71287;48.414;11.478;2024-01-27T07:19:58;5.47;;;2.03;;
9178;SDS011;71287;48.414;11.478;2024-01-27T07:22:25;3.97;;;2.30;;
9178;SDS011;71287;48.414;11.478;2024-01-27T07:24:52;3.37;;;2.40;;
9178;SDS011;71287;48.414;11.478;2024-01-27T07:27:20;2.53;;;2.20;;
9178;SDS011;71287;48.414;11.478;2024-01-27T07:29:48;4.63;;;2.60;;
9178;SDS011;71287;48.414;11.478;2024-01-27T07:32:16;3.93;;;2.10;;
9178;SDS011;71287;48.414;11.478;2024-01-27T07:34:43;4.90;;;2.40;;
9178;SDS011;71287;48.414;11.478;2024-01-27T07:37:10;4.17;;;2.10;;
9178;SDS011;71287;48.414;11.478;2024-01-27T07:39:37;5.17;;;2.00;;
9178;SDS011;71287;48.414;11.478;2024-01-27T07:42:04;3.30;;;1.87;;
9178;SDS011;71287;48.414;11.478;2024-01-27T07:44:31;3.43;;;1.83;;
9178;SDS011;71287;48.414;11.478;2024-01-27T07:46:58;3.87;;;2.00;;
9178;SDS011;71287;48.414;11.478;2024-01-27T07:49:26;4.17;;;2.37;;
9178;SDS011;71287;48.414;11.478;2024-01-27T07:51:53;6.00;;;3.73;;
9178;SDS011;71287;48.414;11.478;2024-01-27T07:54:20;4.87;;;2.93;;
9178;SDS011;71287;48.414;11.478;2024-01-27T07:56:47;3.73;;;2.60;;
9178;SDS011;71287;48.414;11.478;2024-01-27T07:59:14;3.30;;;2.30;;
9178;SDS011;71287;48.414;11.478;2024-01-27T08:01:41;3.77;;;2.70;;
9178;SDS011;71287;48.414;11.478;2024-01-27T08:04:08;7.47;;;2.40;;
9178;SDS011;71287;48.414;11.478;2024-01-27T08:06:46;2.40;;;1.83;;
9178;SDS011;71287;48.414;11.478;2024-01-27T08:09:14;4.93;;;2.30;;
9178;SDS011;71287;48.414;11.478;2024-01-27T08:11:41;6.13;;;2.13;;
9178;SDS011;71287;48.414;11.478;2024-01-27T08:14:08;3.93;;;2.43;;
9178;SDS011;71287;48.414;11.478;2024-01-27T08:16:35;5.60;;;2.90;;
9178;SDS011;71287;48.414;11.478;2024-01-27T08:19:02;3.87;;;2.40;;
9178;SDS011;71287;48.414;11.478;2024-01-27T08:21:29;3.50;;;2.03;;
9178;SDS011;71287;48.414;11.478;2024-01-27T08:23:57;4.27;;;1.83;;
9178;SDS011;71287;48.414;11.478;2024-01-27T08:26:24;4.63;;;2.00;;
9178;SDS011;71287;48.414;11.478;2024-01-27T08:28:50;4.67;;;2.27;;
9178;SDS011;71287;48.414;11.478;2024-01-27T08:31:19;2.77;;;2.20;;
9178;SDS011;71287;48.414;11.478;2024-01-27T08:33:46;4.80;;;2.20;;
9178;SDS011;71287;48.414;11.478;2024-01-27T08:36:13;3.20;;;2.27;;
9178;SDS011;71287;48.414;11.478;2024-01-27T08:38:40;5.20;;;2.50;;
9178;SDS011;71287;48.414;11.478;2024-01-27T08:41:08;5.60;;;2.57;;
9178;SDS011;71287;48.414;11.478;2024-01-27T08:43:34;3.53;;;1.90;;
9178;SDS011;71287;48.414;11.478;2024-01-27T08:46:01;4.53;;;2.57;;
9178;SDS011;71287;48.414;11.478;2024-01-27T08:48:27;3.07;;;2.43;;
9178;SDS011;71287;48.414;11.478;2024-01-27T08:50:54;4.87;;;2.17;;
9178;SDS011;71287;48.414;11.478;2024-01-27T08:53:21;2.47;;;2.10;;
9178;SDS011;71287;48.414;11.478;2024-01-27T08:55:47;5.40;;;2.80;;
9178;SDS011;71287;48.414;11.478;2024-01-27T08:58:16;7.03;;;3.40;;
9178;SDS011;71287;48.414;11.478;2024-01-27T09:00:42;4.50;;;3.23;;
9178;SDS011;71287;48.414;11.478;2024-01-27T09:03:09;5.93;;;2.30;;
9178;SDS011;71287;48.414;11.478;2024-01-27T09:05:37;4.53;;;2.87;;
9178;SDS011;71287;48.414;11.478;2024-01-27T09:08:05;5.10;;;2.03;;
9178;SDS011;71287;48.414;11.478;2024-01-27T09:10:32;7.43;;;2.13;;
9178;SDS011;71287;48.414;11.478;2024-01-27T09:12:59;5.00;;;2.03;;
9178;SDS011;71287;48.414;11.478;2024-01-27T09:15:27;5.17;;;2.43;;
9178;SDS011;71287;48.414;11.478;2024-01-27T09:17:54;5.23;;;2.43;;
9178;SDS011;71287;48.414;11.478;2024-01-27T09:20:21;4.53;;;2.33;;
9178;SDS011;71287;48.414;11.478;2024-01-27T09:22:48;4.77;;;2.10;;
9178;SDS011;71287;48.414;11.478;2024-01-27T09:25:15;3.77;;;1.97;;
9178;SDS011;71287;48.414;11.478;2024-01-27T09:27:42;4.53;;;2.20;;
9178;SDS011;71287;48.414;11.478;2024-01-27T09:30:10;5.93;;;3.00;;
9178;SDS011;71287;48.414;11.478;2024-01-27T09:32:38;8.87;;;3.50;;
9178;SDS011;71287;48.414;11.478;2024-01-27T09:35:05;4.13;;;2.20;;
9178;SDS011;71287;48.414;11.478;2024-01-27T09:37:32;4.53;;;1.97;;
9178;SDS011;71287;48.414;11.478;2024-01-27T09:39:59;6.00;;;2.00;;
9178;SDS011;71287;48.414;11.478;2024-01-27T09:42:27;4.60;;;1.97;;
9178;SDS011;71287;48.414;11.478;2024-01-27T09:44:55;4.50;;;2.10;;
9178;SDS011;71287;48.414;11.478;2024-01-27T09:47:23;4.83;;;2.00;;
9178;SDS011;71287;48.414;11.478;2024-01-27T09:49:52;7.27;;;2.27;;
9178;SDS011;71287;48.414;11.478;2024-01-27T09:52:19;4.27;;;1.80;;
9178;SDS011;71287;48.414;11.478;2024-01-27T09:54:46;3.67;;;1.83;;
9178;SDS011;71287;48.414;11.478;2024-01-27T09:57:13;5.70;;;2.30;;
9178;SDS011;71287;48.414;11.478;2024-01-27T09:59:43;5.20;;;1.80;;
9178;SDS011;71287;48.414;11.478;2024-01-27T10:02:11;4.80;;;1.77;;
9178;SDS011;71287;48.414;11.478;2024-01-27T10:04:40;5.93;;;1.97;;
9178;SDS011;71287;48.414;11.478;2024-01-27T10:07:09;4.13;;;2.10;;
9178;SDS011;71287;48.414;11.478;2024-01-27T10:09:35;7.43;;;2.07;;
9178;SDS011;71287;48.414;11.478;2024-01-27T10:12:02;4.73;;;2.10;;
9178;SDS011;71287;48.414;11.478;2024-01-27T10:14:37;5.43;;;2.33;;
9178;SDS011;71287;48.414;11.478;2024-01-27T10:17:05;4.93;;;2.20;;
9178;SDS011;71287;48.414;11.478;2024-01-27T10:19:34;2.60;;;1.67;;
9178;SDS011;71287;48.414;11.478;2024-01-27T10:22:01;4.13;;;2.10;;
9178;SDS011;71287;48.414;11.478;2024-01-27T10:24:29;3.50;;;2.00;;
9178;SDS011;71287;48.414;11.478;2024-01-27T10:26:58;3.90;;;2.17;;
9178;SDS011;71287;48.414;11.478;2024-01-27T10:29:26;4.53;;;2.20;;
9178;SDS011;71287;48.414;11.478;2024-01-27T10:31:53;5.93;;;2.80;;
9178;SDS011;71287;48.414;11.478;2024-01-27T10:34:19;8.03;;;2.37;;
9178;SDS011;71287;48.414;11.478;2024-01-27T10:36:46;8.23;;;2.63;;
9178;SDS011;71287;48.414;11.478;2024-01-27T10:39:14;8.37;;;3.63;;
9178;SDS011;71287;48.414;11.478;2024-01-27T10:41:44;6.67;;;2.27;;
9178;SDS011;71287;48.414;11.478;2024-01-27T10:44:12;4.53;;;1.87;;
9178;SDS011;71287;48.414;11.478;2024-01-27T10:46:40;4.57;;;1.70;;
9178;SDS011;71287;48.414;11.478;2024-01-27T10:49:10;7.10;;;1.87;;
9178;SDS011;71287;48.414;11.478;2024-01-27T10:51:40;5.13;;;2.20;;
9178;SDS011;71287;48.414;11.478;2024-01-27T10:54:12;5.90;;;2.30;;
9178;SDS011;71287;48.414;11.478;2024-01-27T10:56:45;6.50;;;2.27;;
9178;SDS011;71287;48.414;11.478;2024-01-27T10:59:13;6.07;;;2.10;;
9178;SDS011;71287;48.414;11.478;2024-01-27T11:01:41;4.03;;;2.30;;
9178;SDS011;71287;48.414;11.478;2024-01-27T11:04:10;4.33;;;1.90;;
9178;SDS011;71287;48.414;11.478;2024-01-27T11:06:39;3.43;;;1.80;;
9178;SDS011;71287;48.414;11.478;2024-01-27T11:09:07;3.63;;;1.60;;
9178;SDS011;71287;48.414;11.478;2024-01-27T11:11:36;3.77;;;2.00;;
9178;SDS011;71287;48.414;11.478;2024-01-27T11:14:06;5.40;;;1.80;;
9178;SDS011;71287;48.414;11.478;2024-01-27T11:16:34;3.87;;;2.10;;
9178;SDS011;71287;48.414;11.478;2024-01-27T11:19:03;6.20;;;2.10;;
9178;SDS011;71287;48.414;11.478;2024-01-27T11:21:31;5.13;;;1.90;;
9178;SDS011;71287;48.414;11.478;2024-01-27T11:23:57;5.40;;;2.23;;
9178;SDS011;71287;48.414;11.478;2024-01-27T11:26:24;5.73;;;1.93;;
9178;SDS011;71287;48.414;11.478;2024-01-27T11:28:51;7.77;;;2.03;;
9178;SDS011;71287;48.414;11.478;2024-01-27T11:31:19;6.07;;;1.80;;
9178;SDS011;71287;48.414;11.478;2024-01-27T11:33:47;3.70;;;1.80;;
9178;SDS011;71287;48.414;11.478;2024-01-27T11:36:20;4.27;;;1.93;;
9178;SDS011;71287;48.414;11.478;2024-01-27T11:38:48;4.83;;;1.80;;
9178;SDS011;71287;48.414;11.478;2024-01-27T11:41:28;4.40;;;1.63;;
9178;SDS011;71287;48.414;11.478;2024-01-27T11:43:56;5.40;;;2.10;;
9178;SDS011;71287;48.414;11.478;2024-01-27T11:46:26;4.37;;;2.27;;
9178;SDS011;71287;48.414;11.478;2024-01-27T11:48:53;4.70;;;1.97;;
9178;SDS011;71287;48.414;11.478;2024-01-27T11:51:19;5.90;;;2.10;;
9178;SDS011;71287;48.414;11.478;2024-01-27T11:53:48;5.23;;;2.10;;
9178;SDS011;71287;48.414;11.478;2024-01-27T11:56:15;4.57;;;2.00;;
9178;SDS011;71287;48.414;11.478;2024-01-27T11:58:46;3.23;;;2.17;;
9178;SDS011;71287;48.414;11.478;2024-01-27T12:01:14;3.90;;;1.90;;
9178;SDS011;71287;48.414;11.478;2024-01-27T12:03:42;6.20;;;2.17;;
9178;SDS011;71287;48.414;11.478;2024-01-27T12:06:09;3.60;;;1.63;;
9178;SDS011;71287;48.414;11.478;2024-01-27T12:08:36;6.40;;;1.90;;
9178;SDS011;71287;48.414;11.478;2024-01-27T12:11:04;5.53;;;2.03;;
9178;SDS011;71287;48.414;11.478;2024-01-27T12:13:30;7.30;;;2.10;;
9178;SDS011;71287;48.414;11.478;2024-01-27T12:15:56;3.17;;;1.93;;
9178;SDS011;71287;48.414;11.478;2024-01-27T12:18:25;5.97;;;2.60;;
9178;SDS011;71287;48.414;11.478;2024-01-27T12:20:57;6.20;;;1.77;;
9178;SDS011;71287;48.414;11.478;2024-01-27T12:23:24;5.17;;;2.13;;
9178;SDS011;71287;48.414;11.478;2024-01-27T12:25:54;5.80;;;1.87;;
9178;SDS011;71287;48.414;11.478;2024-01-27T12:28:22;5.03;;;1.83;;
9178;SDS011;71287;48.414;11.478;2024-01-27T12:30:49;3.87;;;1.47;;
9178;SDS011;71287;48.414;11.478;2024-01-27T12:33:16;3.60;;;2.37;;
9178;SDS011;71287;48.414;11.478;2024-01-27T12:35:44;7.87;;;2.40;;
9178;SDS011;71287;48.414;11.478;2024-01-27T12:38:13;4.00;;;1.87;;
9178;SDS011;71287;48.414;11.478;2024-01-27T12:40:40;3.97;;;1.77;;
9178;SDS011;71287;48.414;11.478;2024-01-27T12:43:07;4.13;;;1.70;;
9178;SDS011;71287;48.414;11.478;2024-01-27T12:45:34;3.77;;;2.27;;
9178;SDS011;71287;48.414;11.478;2024-01-27T12:48:01;6.70;;;2.80;;
9178;SDS011;71287;48.414;11.478;2024-01-27T12:50:30;9.80;;;2.20;;
9178;SDS011;71287;48.414;11.478;2024-01-27T12:52:58;3.43;;;1.73;;
9178;SDS011;71287;48.414;11.478;2024-01-27T12:55:26;3.43;;;1.70;;
9178;SDS011;71287;48.414;11.478;2024-01-27T12:57:53;3.57;;;1.53;;
9178;SDS011;71287;48.414;11.478;2024-01-27T13:00:20;3.83;;;1.60;;
9178;SDS011;71287;48.414;11.478;2024-01-27T13:02:47;6.27;;;2.10;;
9178;SDS011;71287;48.414;11.478;2024-01-27T13:05:14;5.47;;;1.90;;
9178;SDS011;71287;48.414;11.478;2024-01-27T13:07:41;5.80;;;2.13;;
9178;SDS011;71287;48.414;11.478;2024-01-27T13:10:10;4.50;;;1.57;;
9178;SDS011;71287;48.414;11.478;2024-01-27T13:12:38;3.53;;;1.80;;
9178;SDS011;71287;48.414;11.478;2024-01-27T13:15:05;9.47;;;2.00;;
9178;SDS011;71287;48.414;11.478;2024-01-27T13:17:32;4.13;;;1.90;;
9178;SDS011;71287;48.414;11.478;2024-01-27T13:19:59;4.40;;;1.70;;
9178;SDS011;71287;48.414;11.478;2024-01-27T13:22:25;7.93;;;2.10;;
9178;SDS011;71287;48.414;11.478;2024-01-27T13:24:52;5.93;;;1.67;;
9178;SDS011;71287;48.414;11.478;2024-01-27T13:27:19;4.80;;;1.70;;
9178;SDS011;71287;48.414;11.478;2024-01-27T13:29:47;5.03;;;1.60;;
9178;SDS011;71287;48.414;11.478;2024-01-27T13:32:15;4.37;;;1.87;;
9178;SDS011;71287;48.414;11.478;2024-01-27T13:34:41;4.90;;;1.50;;
9178;SDS011;71287;48.414;11.478;2024-01-27T13:37:08;3.43;;;1.50;;
9178;SDS011;71287;48.414;11.478;2024-01-27T13:39:36;4.73;;;1.90;;
9178;SDS011;71287;48.414;11.478;2024-01-27T13:42:03;3.27;;;1.60;;
9178;SDS011;71287;48.414;11.478;2024-01-27T13:44:31;3.17;;;1.50;;
9178;SDS011;71287;48.414;11.478;2024-01-27T13:47:01;8.37;;;1.90;;
9178;SDS011;71287;48.414;11.478;2024-01-27T13:49:29;5.63;;;1.93;;
9178;SDS011;71287;48.414;11.478;2024-01-27T13:51:57;5.03;;;1.80;;
9178;SDS011;71287;48.414;11.478;2024-01-27T13:54:24;5.17;;;2.00;;
9178;SDS011;71287;48.414;11.478;2024-01-27T13:56:51;5.80;;;1.73;;
9178;SDS011;71287;48.414;11.478;2024-01-27T13:59:18;2.77;;;1.67;;
9178;SDS011;71287;48.414;11.478;2024-01-27T14:01:46;4.27;;;2.00;;
9178;SDS011;71287;48.414;11.478;2024-01-27T14:04:14;6.63;;;2.27;;
9178;SDS011;71287;48.414;11.478;2024-01-27T14:06:41;3.80;;;1.63;;
9178;SDS011;71287;48.414;11.478;2024-01-27T14:09:08;4.70;;;1.63;;
9178;SDS011;71287;48.414;11.478;2024-01-27T14:11:35;3.47;;;1.30;;
9178;SDS011;71287;48.414;11.478;2024-01-27T14:14:02;4.23;;;1.70;;
9178;SDS011;71287;48.414;11.478;2024-01-27T14:16:29;4.03;;;1.70;;
9178;SDS011;71287;48.414;11.478;2024-01-27T14:18:56;5.97;;;2.00;;
9178;SDS011;71287;48.414;11.478;2024-01-27T14:21:25;5.17;;;2.03;;
9178;SDS011;71287;48.414;11.478;2024-01-27T14:23:52;5.83;;;1.90;;
9178;SDS011;71287;48.414;11.478;2024-01-27T14:26:25;3.57;;;1.83;;
9178;SDS011;71287;48.414;11.478;2024-01-27T14:28:53;5.00;;;1.60;;
9178;SDS011;71287;48.414;11.478;2024-01-27T14:31:20;5.10;;;1.77;;
9178;SDS011;71287;48.414;11.478;2024-01-27T14:33:47;3.60;;;1.70;;
9178;SDS011;71287;48.414;11.478;2024-01-27T14:36:14;3.37;;;1.90;;
9178;SDS011;71287;48.414;11.478;2024-01-27T14:38:42;7.03;;;2.13;;
9178;SDS011;71287;48.414;11.478;2024-01-27T14:41:09;6.33;;;1.90;;
9178;SDS011;71287;48.414;11.478;2024-01-27T14:43:37;4.03;;;1.70;;
9178;SDS011;71287;48.414;11.478;2024-01-27T14:46:04;5.67;;;1.80;;
9178;SDS011;71287;48.414;11.478;2024-01-27T14:48:31;4.80;;;2.17;;